Time;durP1;ratioP1;P1;durP2;ratioP2;P2;SDS_P1;SDS_P2;PMS_P1;PMS_P2;Temp;Humidity;BMP_temperature;BMP_pressure;BME280_temperature;BME280_humidity;BME280_pressure;Samples;Min_cycle;Max_cycle;Signal;HPM_P1;HPM_P2
2022/11/23 00:01:29;;;;;;;7.80;4.70;;;;;;;4.64;82.67;97892.54;1709657;83;21577;-77
2022/11/23 00:04:00;;;;;;;10.48;4.28;;;;;;;4.66;82.57;97888.20;1710639;84;20999;-76
2022/11/23 00:06:28;;;;;;;10.88;4.67;;;;;;;4.66;82.47;97882.61;1707969;84;21629;-77
2022/11/23 00:08:57;;;;;;;9.43;4.22;;;;;;;4.66;82.46;97884.34;1710215;84;21526;-76
2022/11/23 00:11:26;;;;;;;9.33;4.25;;;;;;;4.64;82.45;97880.51;1709110;83;21034;-76
2022/11/23 00:13:55;;;;;;;10.78;4.78;;;;;;;4.66;82.67;97876.63;1709196;84;21015;-77
2022/11/23 00:16:28;;;;;;;11.38;4.22;;;;;;;4.65;82.70;97864.16;1709288;84;21480;-77
2022/11/23 00:18:57;;;;;;;;;;;;;;;4.64;82.64;97852.19;1710819;84;21001;-77
2022/11/23 00:21:29;;;;;;;8.03;3.75;;;;;;;4.62;83.01;97863.41;1709224;84;20143;-76
2022/11/23 00:23:57;;;;;;;10.50;4.58;;;;;;;4.61;83.37;97856.55;1710059;82;20963;-76
2022/11/23 00:26:25;;;;;;;9.05;3.80;;;;;;;4.65;83.00;97857.73;1709223;84;21053;-77
2022/11/23 00:28:53;;;;;;;9.33;4.28;;;;;;;4.66;83.23;97854.73;1709788;84;21557;-77
2022/11/23 00:31:21;;;;;;;8.98;3.87;;;;;;;4.65;83.19;97868.48;1709402;83;21124;-78
2022/11/23 00:33:51;;;;;;;8.70;4.22;;;;;;;4.63;83.49;97865.09;1709281;84;21601;-78
2022/11/23 00:36:20;;;;;;;9.60;4.25;;;;;;;4.61;83.39;97853.98;1710104;84;20998;-77
2022/11/23 00:38:48;;;;;;;7.87;4.45;;;;;;;4.57;83.44;97860.91;1709601;83;21076;-78
2022/11/23 00:41:20;;;;;;;10.88;4.95;;;;;;;4.55;83.47;97845.94;1708152;83;21034;-77
2022/11/23 00:43:48;;;;;;;8.40;3.80;;;;;;;4.55;83.50;97849.34;1713011;83;21058;-78
2022/11/23 00:46:21;;;;;;;15.08;4.37;;;;;;;4.52;83.81;97849.88;1720747;83;21000;-78
2022/11/23 00:48:51;;;;;;;9.20;4.37;;;;;;;4.52;83.50;97839.14;1718131;83;21530;-78
2022/11/23 00:51:26;;;;;;;11.65;4.42;;;;;;;4.50;83.74;97846.49;1682740;85;20995;-77
2022/11/23 00:53:53;;;;;;;8.08;4.20;;;;;;;4.46;83.83;97841.84;1717747;82;20967;-78
2022/11/23 00:56:21;;;;;;;11.73;4.62;;;;;;;4.50;83.88;97831.89;1718374;82;20982;-77
2022/11/23 00:58:50;;;;;;;9.98;4.20;;;;;;;4.50;83.77;97828.03;1701236;83;21493;-77
2022/11/23 01:01:22;;;;;;;9.75;4.87;;;;;;;4.49;84.05;97835.77;1702853;83;20999;-79
2022/11/23 01:03:53;;;;;;;11.22;5.92;;;;;;;4.53;83.97;97835.66;1699840;83;21026;-77
2022/11/23 01:06:31;;;;;;;10.32;4.05;;;;;;;4.55;83.74;97831.78;1701285;83;21066;-78
2022/11/23 01:09:03;;;;;;;9.53;4.35;;;;;;;4.46;84.13;97814.81;1699339;83;21491;-77
2022/11/23 01:11:32;;;;;;;10.05;4.75;;;;;;;4.43;84.32;97819.17;1709100;83;21054;-78
2022/11/23 01:14:01;;;;;;;8.90;4.55;;;;;;;4.46;83.95;97818.67;1711166;83;21137;-78
2022/11/23 01:16:33;;;;;;;7.60;4.03;;;;;;;4.42;84.28;97804.59;1675993;84;21054;-79
2022/11/23 01:19:04;;;;;;;6.92;3.80;;;;;;;4.39;84.38;97797.80;1700036;84;21017;-78
2022/11/23 01:21:34;;;;;;;10.58;4.70;;;;;;;4.41;84.39;97816.62;1700608;83;21100;-80
2022/11/23 01:24:06;;;;;;;7.95;3.85;;;;;;;4.44;84.25;97808.86;1700379;83;21093;-78
2022/11/23 01:26:36;;;;;;;8.20;3.95;;;;;;;4.42;84.00;97801.61;1696814;83;21095;-79
2022/11/23 01:29:03;;;;;;;11.00;4.67;;;;;;;4.41;84.01;97792.63;1700410;83;21679;-78
2022/11/23 01:31:31;;;;;;;8.80;3.77;;;;;;;4.39;84.58;97801.66;1710451;83;21598;-78
2022/11/23 01:34:03;;;;;;;9.88;4.28;;;;;;;4.39;84.39;97805.52;1684672;83;21094;-82
2022/11/23 01:36:33;;;;;;;8.28;3.95;;;;;;;4.39;84.39;97801.21;1699961;83;22372;-79
2022/11/23 01:39:03;;;;;;;8.40;4.35;;;;;;;4.31;85.06;97799.23;1701689;83;21014;-78
2022/11/23 01:41:34;;;;;;;7.72;4.05;;;;;;;4.32;84.73;97791.11;1720238;83;21590;-78
2022/11/23 01:44:29;;;;;;;7.97;4.50;;;;;;;4.29;84.76;97786.85;1687754;84;21337;-78
2022/11/23 01:47:04;;;;;;;11.45;4.12;;;;;;;4.25;85.07;97790.81;1696394;84;21607;-78
2022/11/23 01:49:40;;;;;;;8.95;4.37;;;;;;;4.24;85.08;97800.27;1700061;84;21035;-79
2022/11/23 01:52:21;;;;;;;10.93;3.77;;;;;;;4.28;84.84;97792.05;1697676;84;21043;-78
2022/11/23 01:54:55;;;;;;;10.70;4.00;;;;;;;4.22;85.13;97785.72;1698465;84;21030;-78
2022/11/23 01:57:28;;;;;;;;;;;;;;;4.22;85.27;97794.72;1702270;84;21621;-78
2022/11/23 01:59:57;;;;;;;11.65;4.10;;;;;;;4.25;84.95;97779.23;1698740;84;20267;-78
2022/11/23 02:02:27;;;;;;;11.43;4.30;;;;;;;4.22;85.52;97787.00;1697684;83;21103;-78
2022/11/23 02:04:58;;;;;;;8.43;4.05;;;;;;;4.25;85.10;97778.79;1699275;83;21022;-78
2022/11/23 02:07:25;;;;;;;9.75;4.55;;;;;;;4.26;85.26;97789.50;1681832;84;21856;-79
2022/11/23 02:09:53;;;;;;;9.58;4.30;;;;;;;4.24;85.13;97769.81;1712324;83;21531;-77
2022/11/23 02:12:21;;;;;;;7.55;4.15;;;;;;;4.32;85.21;97774.38;1693477;84;21598;-78
2022/11/23 02:14:49;;;;;;;7.15;4.05;;;;;;;4.34;85.17;97778.61;1698371;83;21621;-78
2022/11/23 02:17:18;;;;;;;9.63;4.03;;;;;;;4.38;84.81;97774.25;1699110;83;21039;-77
2022/11/23 02:20:03;;;;;;;8.40;3.98;;;;;;;4.41;84.94;97782.34;1698390;83;21046;-77
2022/11/23 02:23:11;;;;;;;9.68;4.28;;;;;;;4.42;85.04;97784.88;1698251;84;21113;-77
2022/11/23 02:25:48;;;;;;;8.83;3.72;;;;;;;4.44;85.09;97769.42;1699329;83;21051;-75
2022/11/23 02:28:28;;;;;;;11.08;4.67;;;;;;;4.46;84.72;97756.91;1696083;84;21402;-77
2022/11/23 02:30:55;;;;;;;10.75;4.90;;;;;;;4.45;84.65;97764.66;1699308;84;21039;-77
2022/11/23 02:33:24;;;;;;;9.60;4.15;;;;;;;4.47;84.68;97765.47;1699486;84;21091;-78
2022/11/23 02:35:55;;;;;;;8.38;3.55;;;;;;;4.48;84.49;97764.61;1699421;84;21042;-77
2022/11/23 02:38:28;;;;;;;8.28;4.28;;;;;;;4.46;84.71;97768.50;1700694;84;21054;-76
2022/11/23 02:40:57;;;;;;;;;;;;;;;4.46;84.43;97762.06;1703385;84;20967;-76
2022/11/23 02:43:25;;;;;;;10.72;4.45;;;;;;;4.45;84.61;97753.92;1699912;84;20130;-76
2022/11/23 02:46:01;;;;;;;9.03;4.50;;;;;;;4.45;84.39;97757.78;1688157;84;21035;-77
2022/11/23 02:48:28;;;;;;;8.43;4.28;;;;;;;4.45;84.21;97764.66;1726246;82;21512;-77
2022/11/23 02:50:56;;;;;;;10.63;4.80;;;;;;;4.41;84.43;97773.33;1701721;84;21518;-75
2022/11/23 02:53:24;;;;;;;11.33;4.65;;;;;;;4.39;84.33;97766.92;1700944;83;21506;-77
2022/11/23 02:55:54;;;;;;;11.35;4.78;;;;;;;4.41;84.15;97760.02;1701793;83;21003;-76
2022/11/23 02:58:21;;;;;;;7.95;4.35;;;;;;;4.37;84.11;97758.39;1700814;83;21077;-76
2022/11/23 03:00:49;;;;;;;7.17;4.20;;;;;;;4.36;84.22;97754.14;1700522;83;22220;-76
2022/11/23 03:03:18;;;;;;;10.35;4.72;;;;;;;4.32;84.30;97753.35;1701490;83;21002;-77
2022/11/23 03:05:46;;;;;;;9.88;5.33;;;;;;;4.32;84.26;97758.95;1700913;83;21056;-76
2022/11/23 03:08:13;;;;;;;10.35;4.75;;;;;;;4.31;84.07;97752.09;1701340;83;20963;-75
2022/11/23 03:10:41;;;;;;;11.40;4.35;;;;;;;4.31;84.18;97746.95;1718363;83;20987;-76
2022/11/23 03:13:08;;;;;;;11.20;4.75;;;;;;;4.29;84.24;97744.84;1679501;84;21042;-78
2022/11/23 03:15:37;;;;;;;11.05;5.00;;;;;;;4.28;84.18;97735.00;1664875;84;21034;-77
2022/11/23 03:18:05;;;;;;;9.15;4.25;;;;;;;4.30;84.06;97740.13;1708624;83;21026;-77
2022/11/23 03:20:33;;;;;;;9.63;4.80;;;;;;;4.28;84.24;97747.86;1700189;83;21315;-77
2022/11/23 03:23:00;;;;;;;9.35;4.15;;;;;;;4.31;84.17;97759.81;1700428;83;21311;-78
2022/11/23 03:25:28;;;;;;;6.58;3.67;;;;;;;4.32;84.22;97752.52;1700244;84;21026;-77
2022/11/23 03:27:57;;;;;;;9.93;4.25;;;;;;;4.33;84.20;97749.05;1700497;83;21034;-78
2022/11/23 03:30:24;;;;;;;10.28;4.60;;;;;;;4.33;84.00;97741.33;1700465;83;21021;-80
2022/11/23 03:32:52;;;;;;;12.90;4.20;;;;;;;4.33;83.88;97752.45;1700513;83;21066;-76
2022/11/23 03:35:20;;;;;;;9.93;4.50;;;;;;;4.37;83.92;97762.25;1700178;83;20978;-77
2022/11/23 03:38:07;;;;;;;9.60;4.37;;;;;;;4.29;83.64;97759.00;1700648;83;21147;-78
2022/11/23 03:40:35;;;;;;;12.13;4.17;;;;;;;4.29;83.97;97781.70;1709224;83;21001;-79
2022/11/23 03:43:05;;;;;;;7.53;4.37;;;;;;;4.33;83.76;97765.77;1698495;83;21070;-80
2022/11/23 03:45:32;;;;;;;11.80;4.83;;;;;;;4.25;83.51;97755.63;1699310;83;21047;-77
2022/11/23 03:48:00;;;;;;;8.78;4.15;;;;;;;4.27;83.53;97764.62;1704530;83;21054;-78
2022/11/23 03:50:28;;;;;;;9.68;5.12;;;;;;;4.22;83.40;97763.44;1698463;83;21303;-79
2022/11/23 03:52:56;;;;;;;9.98;4.33;;;;;;;4.25;83.40;97781.81;1677149;84;20986;-77
2022/11/23 03:55:25;;;;;;;10.45;4.45;;;;;;;4.23;83.07;97784.41;1682186;84;21369;-78
2022/11/23 03:57:54;;;;;;;10.58;4.97;;;;;;;4.24;83.45;97789.98;1702448;83;21042;-76
2022/11/23 04:00:22;;;;;;;10.58;3.95;;;;;;;4.26;83.19;97780.91;1683438;84;21769;-77
2022/11/23 04:02:49;;;;;;;10.00;4.58;;;;;;;4.30;82.67;97787.27;1701735;83;21492;-78
2022/11/23 04:05:27;;;;;;;8.98;4.42;;;;;;;4.31;82.99;97782.52;1693510;83;21026;-77
2022/11/23 04:08:13;;;;;;;11.45;5.00;;;;;;;4.32;83.03;97784.67;1680515;85;21139;-76
2022/11/23 04:10:41;;;;;;;13.00;4.28;;;;;;;4.32;83.04;97783.39;1698852;83;21344;-76
2022/11/23 04:13:16;;;;;;;8.48;4.10;;;;;;;4.39;83.13;97793.94;1681755;84;21056;-77
2022/11/23 04:15:43;;;;;;;7.92;4.15;;;;;;;4.39;82.90;97783.20;1699039;83;21066;-77
2022/11/23 04:18:11;;;;;;;11.63;4.70;;;;;;;4.42;82.56;97780.15;1700606;83;21023;-78
2022/11/23 04:20:39;;;;;;;8.48;4.17;;;;;;;4.43;82.58;97783.98;1682663;84;21026;-78
2022/11/23 04:23:07;;;;;;;8.38;4.00;;;;;;;4.40;82.39;97789.22;1682003;84;21014;-78
2022/11/23 04:25:34;;;;;;;10.88;3.75;;;;;;;4.42;82.45;97786.17;1653596;85;21049;-77
2022/11/23 04:28:02;;;;;;;10.32;4.37;;;;;;;4.47;82.42;97779.18;1682467;84;21082;-77
2022/11/23 04:30:30;;;;;;;7.80;3.83;;;;;;;4.50;82.30;97775.27;1660097;85;21630;-77
2022/11/23 04:32:58;;;;;;;8.43;4.15;;;;;;;4.54;82.05;97785.90;1682046;85;21625;-78
2022/11/23 04:35:27;;;;;;;8.78;4.42;;;;;;;4.55;82.12;97788.86;1682424;85;21378;-78
2022/11/23 04:37:55;;;;;;;9.45;4.58;;;;;;;4.60;82.32;97781.51;1682240;85;21063;-79
2022/11/23 04:40:24;;;;;;;6.90;3.85;;;;;;;4.65;82.35;97771.48;1683062;85;21074;-78
2022/11/23 04:42:53;;;;;;;10.08;4.37;;;;;;;4.65;82.24;97778.38;1683161;85;21135;-79
2022/11/23 04:45:21;;;;;;;7.45;3.80;;;;;;;4.66;82.47;97777.06;1695544;82;21042;-77
2022/11/23 04:47:49;;;;;;;8.08;4.12;;;;;;;4.70;82.38;97768.39;1692101;85;21363;-78
2022/11/23 04:50:17;;;;;;;12.60;4.62;;;;;;;4.68;81.98;97762.88;1691825;85;21068;-77
2022/11/23 04:52:46;;;;;;;11.60;4.72;;;;;;;4.61;82.12;97762.59;1691574;85;21080;-78
2022/11/23 04:55:16;;;;;;;9.35;4.30;;;;;;;4.65;82.14;97753.92;1709216;83;21062;-78
2022/11/23 04:57:45;;;;;;;9.18;4.65;;;;;;;4.65;82.55;97754.76;1711488;84;21101;-77
2022/11/23 05:00:14;;;;;;;9.05;4.42;;;;;;;4.66;82.47;97759.04;1691861;85;21120;-77
2022/11/23 05:02:42;;;;;;;10.30;4.55;;;;;;;4.71;82.35;97763.62;1691581;85;21504;-78
2022/11/23 05:05:11;;;;;;;8.35;4.25;;;;;;;4.65;82.32;97762.93;1689364;85;21084;-77
2022/11/23 05:07:39;;;;;;;11.38;4.40;;;;;;;4.62;82.31;97765.59;1691548;85;21108;-77
2022/11/23 05:10:08;;;;;;;11.00;4.62;;;;;;;4.60;82.07;97768.64;1691607;85;21064;-77
2022/11/23 05:12:36;;;;;;;11.78;5.22;;;;;;;4.57;81.93;97763.94;1692133;85;22156;-77
2022/11/23 05:15:05;;;;;;;9.95;5.00;;;;;;;4.56;82.26;97760.97;1691488;85;21057;-78
2022/11/23 05:17:36;;;;;;;12.78;6.20;;;;;;;4.57;82.30;97757.50;1691038;85;21788;-77
2022/11/23 05:20:06;;;;;;;12.23;5.58;;;;;;;4.56;82.23;97750.67;1692722;85;21072;-78
2022/11/23 05:22:35;;;;;;;19.25;6.53;;;;;;;4.61;82.22;97757.45;1692562;85;21036;-77
2022/11/23 05:25:06;;;;;;;14.00;6.05;;;;;;;4.60;82.06;97762.20;1691179;85;21084;-77
2022/11/23 05:27:34;;;;;;;19.82;7.67;;;;;;;4.60;82.20;97755.77;1691483;85;21339;-75
2022/11/23 05:30:03;;;;;;;17.15;6.80;;;;;;;4.59;82.10;97758.76;1691670;85;21103;-76
2022/11/23 05:32:32;;;;;;;13.15;5.85;;;;;;;4.55;82.21;97753.27;1692955;85;21072;-79
2022/11/23 05:35:00;;;;;;;12.55;6.60;;;;;;;4.55;82.12;97759.27;1713532;83;21020;-79
2022/11/23 05:37:28;;;;;;;14.60;6.20;;;;;;;4.53;82.41;97761.02;1710363;84;21035;-80
2022/11/23 05:40:00;;;;;;;12.85;6.37;;;;;;;4.53;82.47;97758.45;1710302;84;21035;-79
2022/11/23 05:42:30;;;;;;;12.98;5.83;;;;;;;4.54;82.45;97756.30;1710268;84;21228;-77
2022/11/23 05:45:00;;;;;;;12.53;5.25;;;;;;;4.53;82.56;97760.19;1710221;83;21059;-77
2022/11/23 05:47:29;;;;;;;14.28;5.55;;;;;;;4.54;82.57;97764.02;1710432;83;21028;-78
2022/11/23 05:49:56;;;;;;;15.45;6.50;;;;;;;4.59;82.56;97776.78;1710059;84;21010;-77
2022/11/23 05:52:26;;;;;;;10.32;5.67;;;;;;;4.62;82.57;97778.46;1710144;84;21010;-78
2022/11/23 05:54:53;;;;;;;12.85;6.10;;;;;;;4.56;82.39;97789.28;1710197;84;21069;-78
2022/11/23 05:57:21;;;;;;;15.72;6.78;;;;;;;4.56;82.36;97791.86;1708843;84;21038;-78
2022/11/23 05:59:50;;;;;;;13.65;5.87;;;;;;;4.53;82.24;97783.35;1708918;84;21092;-78
2022/11/23 06:02:19;;;;;;;16.20;5.87;;;;;;;4.54;82.36;97787.19;1709987;83;21077;-77
2022/11/23 06:04:48;;;;;;;13.38;5.10;;;;;;;4.53;82.29;97779.48;1709524;84;21037;-77
2022/11/23 06:07:18;;;;;;;11.60;5.20;;;;;;;4.54;82.27;97770.45;1708729;84;21613;-78
2022/11/23 06:09:50;;;;;;;10.05;4.75;;;;;;;4.57;82.05;97772.95;1683839;84;21052;-77
2022/11/23 06:12:18;;;;;;;10.98;5.58;;;;;;;4.61;82.08;97777.59;1708863;84;21106;-77
2022/11/23 06:14:45;;;;;;;12.15;5.53;;;;;;;4.61;82.08;97781.90;1708916;84;21029;-77
2022/11/23 06:17:14;;;;;;;14.03;5.25;;;;;;;4.64;81.85;97781.40;1708730;84;21073;-76
2022/11/23 06:19:44;;;;;;;11.10;5.42;;;;;;;4.63;81.77;97774.54;1708634;84;21045;-78
2022/11/23 06:22:12;;;;;;;12.75;5.85;;;;;;;4.64;81.93;97787.84;1708648;84;21081;-77
2022/11/23 06:24:45;;;;;;;11.80;5.70;;;;;;;4.66;82.07;97787.80;1708762;83;21058;-77
2022/11/23 06:27:31;;;;;;;11.83;5.28;;;;;;;4.70;82.06;97784.28;1710511;84;21114;-78
2022/11/23 06:29:59;;;;;;;11.28;5.05;;;;;;;4.71;81.09;97784.67;1695750;84;21118;-77
2022/11/23 06:32:27;;;;;;;12.07;4.92;;;;;;;4.69;81.46;97786.44;1710115;83;21002;-77
2022/11/23 06:34:56;;;;;;;16.70;5.58;;;;;;;4.72;81.23;97789.80;1710663;83;21182;-77
2022/11/23 06:37:24;;;;;;;15.05;6.85;;;;;;;4.76;81.55;97790.13;1709643;83;21584;-77
2022/11/23 06:39:53;;;;;;;12.88;6.15;;;;;;;4.80;81.67;97789.63;1708731;84;21474;-78
2022/11/23 06:42:20;;;;;;;11.18;6.05;;;;;;;4.86;81.58;97792.05;1709478;83;22052;-77
2022/11/23 06:44:48;;;;;;;13.70;6.05;;;;;;;4.92;81.65;97789.34;1707959;83;21087;-78
2022/11/23 06:47:16;;;;;;;20.02;7.67;;;;;;;4.98;81.89;97796.91;1683266;83;21610;-77
2022/11/23 06:49:44;;;;;;;20.77;7.72;;;;;;;5.07;82.19;97801.44;1692461;83;21458;-77
2022/11/23 06:52:13;;;;;;;19.25;8.60;;;;;;;5.14;82.07;97804.30;1685950;84;21012;-77
2022/11/23 06:54:41;;;;;;;18.30;8.55;;;;;;;5.17;82.20;97791.31;1703672;83;21082;-77
2022/11/23 06:57:09;;;;;;;30.68;12.37;;;;;;;5.24;82.30;97790.75;1699816;83;21514;-77
2022/11/23 06:59:37;;;;;;;19.95;8.33;;;;;;;5.28;82.53;97794.48;1722358;82;21015;-78
2022/11/23 07:02:06;;;;;;;17.02;7.40;;;;;;;5.32;82.26;97789.66;1690232;83;21598;-76
2022/11/23 07:04:35;;;;;;;16.32;7.20;;;;;;;5.33;82.20;97782.34;1705507;83;21149;-78
2022/11/23 07:07:07;;;;;;;20.25;8.30;;;;;;;5.38;82.32;97780.94;1704378;83;21080;-76
2022/11/23 07:09:37;;;;;;;21.42;8.50;;;;;;;5.44;81.96;97794.12;1702207;83;21098;-77
2022/11/23 07:12:13;;;;;;;25.88;8.03;;;;;;;5.47;81.70;97792.73;1665668;83;21379;-78
2022/11/23 07:14:40;;;;;;;22.48;6.78;;;;;;;5.51;81.25;97781.45;1722968;82;21092;-78
2022/11/23 07:17:08;;;;;;;14.50;6.55;;;;;;;5.54;80.60;97778.81;1691781;83;22504;-78
2022/11/23 07:19:36;;;;;;;13.70;5.78;;;;;;;5.56;80.74;97780.45;1704665;83;21059;-77
2022/11/23 07:22:05;;;;;;;10.35;5.22;;;;;;;5.57;79.51;97770.98;1704165;83;21074;-77
2022/11/23 07:24:33;;;;;;;9.35;4.72;;;;;;;5.58;79.97;97761.09;1707414;83;21034;-77
2022/11/23 07:27:00;;;;;;;12.60;5.05;;;;;;;5.61;79.67;97759.73;1722265;82;21186;-77
2022/11/23 07:29:28;;;;;;;10.10;4.87;;;;;;;5.61;79.47;97759.73;1723001;82;21036;-78
2022/11/23 07:31:57;;;;;;;14.73;6.15;;;;;;;5.67;78.18;97766.02;1703355;83;21113;-81
2022/11/23 07:34:27;;;;;;;15.40;5.10;;;;;;;5.71;79.42;97762.88;1704522;83;20990;-78
2022/11/23 07:36:55;;;;;;;9.98;5.05;;;;;;;5.75;79.41;97769.68;1701999;83;21066;-78
2022/11/23 07:39:23;;;;;;;12.40;5.08;;;;;;;5.74;78.46;97770.09;1701870;83;21018;-78
2022/11/23 07:41:51;;;;;;;12.55;4.78;;;;;;;5.70;78.08;97764.62;1702941;83;21201;-77
2022/11/23 07:44:23;;;;;;;13.88;5.03;;;;;;;5.71;78.17;97759.88;1701706;83;21079;-78
2022/11/23 07:46:53;;;;;;;9.83;4.53;;;;;;;5.76;79.12;97760.59;1692525;83;21084;-76
2022/11/23 07:49:20;;;;;;;18.27;6.87;;;;;;;5.75;78.10;97754.20;1702373;83;21150;-77
2022/11/23 07:51:48;;;;;;;19.00;9.05;;;;;;;5.81;78.08;97757.91;1694131;82;21003;-77
2022/11/23 07:54:16;;;;;;;15.38;6.28;;;;;;;5.78;78.60;97763.97;1729609;81;21054;-76
2022/11/23 07:56:44;;;;;;;11.30;5.70;;;;;;;5.82;77.48;97766.03;1705395;81;21017;-78
2022/11/23 07:59:11;;;;;;;11.30;5.95;;;;;;;5.93;78.13;97765.75;1709861;82;21534;-76
2022/11/23 08:01:39;;;;;;;14.33;5.78;;;;;;;5.95;78.05;97760.98;1711091;82;21564;-78
2022/11/23 08:04:07;;;;;;;16.10;5.97;;;;;;;5.99;77.98;97763.03;1692043;83;21034;-77
2022/11/23 08:06:34;;;;;;;12.60;6.17;;;;;;;6.07;78.43;97755.05;1706270;81;21009;-77
2022/11/23 08:09:02;;;;;;;13.32;6.33;;;;;;;6.09;77.88;97745.11;1710862;82;20990;-77
2022/11/23 08:11:30;;;;;;;15.98;6.05;;;;;;;6.17;78.16;97745.73;1723606;81;21038;-77
2022/11/23 08:13:57;;;;;;;11.30;5.95;;;;;;;6.17;78.21;97742.31;1708906;82;21568;-77
2022/11/23 08:16:24;;;;;;;13.30;6.37;;;;;;;6.22;78.44;97748.62;1697592;83;22474;-77
2022/11/23 08:18:52;;;;;;;14.28;7.17;;;;;;;6.25;78.17;97745.96;1705720;82;21061;-77
2022/11/23 08:21:21;;;;;;;13.95;6.12;;;;;;;6.32;77.96;97739.70;1695449;83;21062;-77
2022/11/23 08:23:48;;;;;;;19.17;7.20;;;;;;;6.33;78.69;97747.87;1705400;81;21533;-77
2022/11/23 08:26:16;;;;;;;16.32;6.85;;;;;;;6.40;79.12;97756.27;1705565;83;21561;-76
2022/11/23 08:28:43;;;;;;;10.43;5.55;;;;;;;6.55;79.51;97763.11;1697375;83;22612;-77
2022/11/23 08:31:13;;;;;;;31.93;6.58;;;;;;;6.70;79.12;97752.73;1710681;82;21030;-77
2022/11/23 08:33:41;;;;;;;19.27;5.58;;;;;;;6.76;78.60;97759.03;1709040;82;21585;-78
2022/11/23 08:36:09;;;;;;;11.22;4.70;;;;;;;6.75;77.78;97743.58;1707127;82;21064;-77
2022/11/23 08:38:37;;;;;;;12.78;5.72;;;;;;;6.74;77.91;97750.91;1711186;82;21077;-77
2022/11/23 08:41:05;;;;;;;9.98;5.37;;;;;;;6.72;77.91;97757.41;1689908;83;21133;-77
2022/11/23 08:43:33;;;;;;;10.50;5.12;;;;;;;6.75;77.88;97752.62;1409618;81;10000511;-76
2022/11/23 08:46:02;;;;;;;10.50;4.90;;;;;;;6.80;76.37;97756.34;1644467;86;21144;-78
2022/11/23 08:48:30;;;;;;;10.88;6.00;;;;;;;6.82;77.64;97748.09;1642966;86;21023;-76
2022/11/23 08:50:59;;;;;;;9.80;5.03;;;;;;;6.88;76.55;97742.73;1650903;83;21096;-77
2022/11/23 08:53:27;;;;;;;13.43;5.75;;;;;;;6.94;77.33;97757.61;1612015;87;21028;-78
2022/11/23 08:55:54;;;;;;;10.98;4.80;;;;;;;7.01;77.17;97753.54;1644750;86;21090;-80
2022/11/23 08:58:22;;;;;;;8.68;4.53;;;;;;;7.04;76.16;97750.38;1417759;85;10000736;-79
2022/11/23 09:00:49;;;;;;;8.63;4.87;;;;;;;7.02;75.58;97752.63;1408815;85;10000226;-77
2022/11/23 09:03:17;;;;;;;11.90;5.37;;;;;;;7.09;76.70;97765.76;1653217;85;21026;-79
2022/11/23 09:05:45;;;;;;;12.35;5.67;;;;;;;7.18;76.04;97773.20;1639379;86;21062;-79
2022/11/23 09:08:15;;;;;;;13.08;5.20;;;;;;;7.21;75.94;97760.64;1651591;85;21034;-79
2022/11/23 09:11:05;;;;;;;10.33;4.76;;;;;;;7.26;76.13;97762.61;1525912;87;9999581;-75
2022/11/23 09:13:36;;;;;;;10.23;4.53;;;;;;;7.27;76.29;97762.56;1617192;87;21016;-78
2022/11/23 09:16:05;;;;;;;9.63;4.30;;;;;;;7.34;76.01;97761.48;1617890;87;21020;-79
2022/11/23 09:18:35;;;;;;;10.10;3.98;;;;;;;7.37;73.89;97766.53;1617019;87;21563;-76
2022/11/23 09:21:12;;;;;;;11.35;4.67;;;;;;;7.42;75.31;97759.06;1615887;87;21103;-77
2022/11/23 09:23:39;;;;;;;10.35;4.25;;;;;;;7.40;75.21;97756.55;1594863;87;21016;-78
2022/11/23 09:26:07;;;;;;;15.05;5.03;;;;;;;7.41;74.48;97752.22;1618042;87;20975;-78
2022/11/23 09:28:34;;;;;;;10.15;4.45;;;;;;;7.47;74.70;97754.14;1624137;87;21039;-79
2022/11/23 09:31:03;;;;;;;9.90;4.70;;;;;;;7.40;74.40;97755.27;1615526;87;21114;-79
2022/11/23 09:33:31;;;;;;;7.50;3.85;;;;;;;7.40;72.97;97745.34;1589230;89;21897;-79
2022/11/23 09:36:01;;;;;;;8.28;4.37;;;;;;;7.42;73.70;97734.08;1617792;87;21066;-79
2022/11/23 09:38:29;;;;;;;6.47;4.12;;;;;;;7.44;73.25;97737.87;1620958;87;21054;-77
2022/11/23 09:41:08;;;;;;;11.10;4.58;;;;;;;7.46;72.65;97741.25;1643908;86;21031;-77
2022/11/23 09:44:07;;;;;;;10.63;4.55;;;;;;;7.47;73.18;97736.49;1643663;86;21034;-77
2022/11/23 09:47:03;;;;;;;19.55;4.67;;;;;;;7.52;72.97;97732.86;1645254;85;21066;-77
2022/11/23 09:49:54;;;;;;;9.25;5.05;;;;;;;7.65;73.26;97740.19;1647439;85;21090;-77
2022/11/23 09:52:24;;;;;;;10.08;3.95;;;;;;;7.72;73.77;97732.62;1632268;84;21071;-76
2022/11/23 09:54:56;;;;;;;9.08;4.42;;;;;;;7.74;72.12;97732.11;1667767;84;21045;-77
2022/11/23 09:57:27;;;;;;;7.92;3.90;;;;;;;7.82;73.80;97727.50;1637956;86;21880;-78
2022/11/23 10:00:03;;;;;;;7.17;3.83;;;;;;;7.92;73.31;97725.44;1669163;84;21562;-79
2022/11/23 10:02:37;;;;;;;9.48;4.47;;;;;;;8.01;72.06;97725.08;1637144;86;21063;-76
2022/11/23 10:05:06;;;;;;;9.40;4.65;;;;;;;8.11;72.63;97729.47;1664934;84;21018;-77
2022/11/23 10:08:04;;;;;;;8.20;4.12;;;;;;;8.25;70.47;97724.61;1644825;86;21002;-77
2022/11/23 10:10:53;;;;;;;8.68;3.42;;;;;;;8.35;71.87;97719.48;1657490;84;20967;-77
2022/11/23 10:13:42;;;;;;;7.65;3.25;;;;;;;8.45;69.23;97721.30;1668018;84;21070;-77
2022/11/23 10:16:24;;;;;;;7.60;2.87;;;;;;;8.42;67.60;97724.48;1637956;86;21007;-77
2022/11/23 10:19:21;;;;;;;5.83;2.92;;;;;;;8.44;69.30;97734.33;1621268;87;21014;-76
2022/11/23 10:22:00;;;;;;;6.03;2.90;;;;;;;8.47;68.84;97725.13;1616632;87;21075;-77
2022/11/23 10:24:36;;;;;;;6.37;2.65;;;;;;;8.51;69.94;97721.06;1641646;85;21878;-77
2022/11/23 10:27:09;;;;;;;7.33;3.37;;;;;;;8.61;69.96;97725.89;1670538;84;21038;-76
2022/11/23 10:29:37;;;;;;;10.72;3.25;;;;;;;8.67;70.35;97721.30;1640513;86;21002;-77
2022/11/23 10:32:13;;;;;;;9.15;3.40;;;;;;;8.78;70.51;97713.59;1636929;86;21015;-78
2022/11/23 10:35:19;;;;;;;7.85;3.40;;;;;;;8.83;68.93;97705.99;1670932;84;20991;-77
2022/11/23 10:37:47;;;;;;;5.97;3.02;;;;;;;8.88;69.69;97710.55;1676114;84;20990;-78
2022/11/23 10:40:25;;;;;;;7.87;3.02;;;;;;;8.93;68.81;97709.06;1675242;84;21486;-77
2022/11/23 10:43:00;;;;;;;8.08;3.35;;;;;;;9.05;69.65;97710.31;1673631;84;21048;-77
2022/11/23 10:45:28;;;;;;;6.30;3.30;;;;;;;9.08;68.27;97708.44;1675995;84;21017;-77
2022/11/23 10:47:59;;;;;;;7.78;3.75;;;;;;;9.18;68.57;97706.77;1638331;86;21053;-79
2022/11/23 10:50:39;;;;;;;11.38;4.55;;;;;;;9.24;68.53;97703.46;1668153;84;21097;-76
2022/11/23 10:53:25;;;;;;;11.63;4.28;;;;;;;9.32;68.85;97699.25;1638463;87;21063;-77
2022/11/23 10:55:56;;;;;;;6.70;3.75;;;;;;;9.35;67.12;97702.56;1639213;86;21055;-78
2022/11/23 10:58:44;;;;;;;9.78;4.03;;;;;;;9.45;68.71;97693.94;1672166;85;21501;-77
2022/11/23 11:01:17;;;;;;;11.78;4.53;;;;;;;9.50;66.35;97685.48;1636975;87;21101;-78
2022/11/23 11:03:45;;;;;;;8.98;4.12;;;;;;;9.51;68.40;97690.21;1668626;84;21038;-80
2022/11/23 11:06:29;;;;;;;6.97;3.30;;;;;;;9.59;67.45;97689.45;1638211;86;21753;-75
2022/11/23 11:09:02;;;;;;;;;;;;;;;9.73;67.17;97692.28;1670690;84;21125;-77
2022/11/23 11:11:34;;;;;;;7.53;3.50;;;;;;;9.73;66.54;97676.71;1666451;84;20216;-76
2022/11/23 11:14:18;;;;;;;18.70;8.60;;;;;;;9.80;67.00;97679.86;1640076;86;21071;-77
2022/11/23 11:16:59;;;;;;;;;;;;;;;9.71;65.83;97677.70;1672583;84;21010;-76
2022/11/23 11:19:34;;;;;;;11.15;4.10;;;;;;;9.78;66.84;97675.66;1606465;88;20141;-77
2022/11/23 11:22:24;;;;;;;9.38;4.10;;;;;;;9.71;66.36;97686.31;1665013;84;21078;-77
2022/11/23 11:24:53;;;;;;;10.78;4.00;;;;;;;9.83;64.99;97679.74;1668049;84;20992;-79
2022/11/23 11:27:23;;;;;;;6.78;3.33;;;;;;;9.77;66.13;97685.21;1672543;84;21566;-77
2022/11/23 11:29:58;;;;;;;7.05;3.25;;;;;;;9.86;65.99;97674.39;1669392;84;20959;-78
2022/11/23 11:32:40;;;;;;;10.00;3.87;;;;;;;9.97;66.79;97675.23;1640631;86;21547;-77
2022/11/23 11:35:26;;;;;;;7.00;3.37;;;;;;;10.09;66.18;97669.47;1637771;86;21051;-80
2022/11/23 11:38:05;;;;;;;8.18;3.30;;;;;;;10.15;66.15;97672.25;1612433;87;21053;-78
2022/11/23 11:40:44;;;;;;;7.00;3.20;;;;;;;10.21;63.68;97669.36;1634077;83;21487;-78
2022/11/23 11:43:38;;;;;;;6.03;2.98;;;;;;;10.45;65.13;97657.01;1668195;84;21135;-78
2022/11/23 11:46:11;;;;;;;;;;;;;;;10.60;63.96;97656.72;1658696;84;21006;-77
2022/11/23 11:48:50;;;;;;;8.43;3.67;;;;;;;10.78;64.72;97658.88;1679706;84;20240;-76
2022/11/23 11:51:35;;;;;;;7.92;3.35;;;;;;;10.82;62.86;97654.37;1684233;82;20960;-78
2022/11/23 11:54:34;;;;;;;7.22;3.72;;;;;;;11.02;63.00;97656.86;1714837;82;21005;-79
2022/11/23 11:57:21;;;;;;;7.05;3.75;;;;;;;11.17;63.34;97653.94;1718557;82;21459;-77
2022/11/23 11:59:54;;;;;;;5.78;3.27;;;;;;;11.32;63.16;97654.47;1716415;82;20931;-76